Time;durP1;ratioP1;P1;durP2;ratioP2;P2;SDS_P1;SDS_P2;PMS_P1;PMS_P2;Temp;Humidity;BMP_temperature;BMP_pressure;BME280_temperature;BME280_humidity;BME280_pressure;Samples;Min_cycle;Max_cycle;Signal;HPM_P1;HPM_P2
2022/09/04 00:02:21;;;;;;;0.80;0.80;;;;;;;23.14;48.03;95472.75;5045011;28;20442;-63
2022/09/04 00:04:56;;;;;;;0.80;0.80;;;;;;;23.17;48.01;95462.53;5040921;28;20608;-63
2022/09/04 00:07:28;;;;;;;1.00;0.93;;;;;;;23.07;47.78;95469.81;5050275;28;20988;-63
2022/09/04 00:10:22;;;;;;;1.13;0.93;;;;;;;22.87;48.18;95467.81;5050516;28;20545;-62
2022/09/04 00:13:11;;;;;;;0.13;0.13;;;;;;;23.05;47.93;95480.03;5030511;28;20197;-62
2022/09/04 00:15:53;;;;;;;0.20;0.20;;;;;;;22.94;48.27;95481.47;5029441;28;20675;-62
2022/09/04 00:18:31;;;;;;;0.40;0.40;;;;;;;22.77;48.56;95478.81;5031962;28;20468;-63
2022/09/04 00:21:04;;;;;;;2.40;1.23;;;;;;;22.99;48.00;95478.63;5051302;28;20704;-63
2022/09/04 00:24:11;;;;;;;1.73;0.60;;;;;;;22.75;48.81;95478.38;5036923;28;20543;-64
2022/09/04 00:26:56;;;;;;;0.60;0.60;;;;;;;22.97;48.19;95480.06;5049196;28;20315;-63
2022/09/04 00:29:31;;;;;;;0.80;0.80;;;;;;;23.05;48.15;95477.34;5041869;28;20475;-64
2022/09/04 00:32:05;;;;;;;2.73;0.97;;;;;;;22.83;48.01;95485.59;5048720;28;20196;-64
2022/09/04 00:34:41;;;;;;;0.80;0.53;;;;;;;22.84;48.42;95487.16;5061285;28;21518;-63
2022/09/04 00:37:13;;;;;;;1.50;1.10;;;;;;;22.83;48.38;95490.94;5036296;28;20832;-63
2022/09/04 00:39:53;;;;;;;1.40;1.30;;;;;;;22.81;48.38;95493.13;5041333;28;20447;-63
2022/09/04 00:42:39;;;;;;;3.60;0.97;;;;;;;22.70;48.60;95486.53;5030147;28;20479;-64
2022/09/04 00:45:51;;;;;;;3.33;0.70;;;;;;;22.52;48.70;95489.53;5054116;28;20441;-64
2022/09/04 00:48:23;;;;;;;0.70;0.70;;;;;;;22.43;49.29;95491.41;5055089;28;20482;-63
2022/09/04 00:51:10;;;;;;;1.20;1.13;;;;;;;22.57;48.38;95494.75;5042440;28;20456;-63
2022/09/04 00:53:49;;;;;;;0.63;0.63;;;;;;;22.57;48.38;95486.75;5048913;28;20533;-63
2022/09/04 00:56:40;;;;;;;0.30;0.30;;;;;;;22.51;48.95;95474.59;5051896;28;20465;-63
2022/09/04 00:59:21;;;;;;;1.57;1.17;;;;;;;22.30;49.11;95482.47;5062924;28;20849;-63
2022/09/04 01:01:54;;;;;;;0.43;0.43;;;;;;;22.31;49.02;95493.94;5064599;28;20512;-62
2022/09/04 01:04:30;;;;;;;1.10;1.10;;;;;;;22.42;48.93;95484.50;5035370;28;20471;-64
2022/09/04 01:07:07;;;;;;;0.57;0.57;;;;;;;22.43;48.62;95481.53;5063389;28;21049;-63
2022/09/04 01:09:45;;;;;;;0.30;0.30;;;;;;;22.40;48.78;95471.47;5055015;28;20821;-62
2022/09/04 01:12:16;;;;;;;0.40;0.40;;;;;;;22.39;48.47;95493.16;5045563;28;20920;-62
2022/09/04 01:15:10;;;;;;;0.80;0.77;;;;;;;22.24;48.94;95486.41;5068593;28;20434;-62
2022/09/04 01:17:52;;;;;;;0.37;0.37;;;;;;;21.75;50.37;95484.88;5053656;28;20487;-65
2022/09/04 01:20:52;;;;;;;1.73;1.63;;;;;;;21.79;49.97;95504.56;5049342;28;20517;-62
2022/09/04 01:23:44;;;;;;;0.77;0.77;;;;;;;22.00;49.99;95499.41;5038295;28;20470;-62
2022/09/04 01:26:27;;;;;;;0.37;0.37;;;;;;;22.17;49.10;95487.97;5049087;28;20470;-63
2022/09/04 01:29:15;;;;;;;0.50;0.30;;;;;;;22.36;48.66;95501.78;5061780;28;20490;-64
2022/09/04 01:32:05;;;;;;;0.50;0.50;;;;;;;22.27;48.96;95493.78;5054190;28;20447;-63
2022/09/04 01:34:58;;;;;;;1.70;1.60;;;;;;;22.40;48.48;95476.81;5057180;28;20453;-63
2022/09/04 01:37:46;;;;;;;3.13;2.87;;;;;;;22.37;48.40;95469.41;5053298;28;20445;-63
2022/09/04 01:40:36;;;;;;;1.73;1.53;;;;;;;22.17;49.03;95472.72;5036649;28;20523;-63
2022/09/04 01:43:19;;;;;;;1.40;1.30;;;;;;;22.26;48.71;95467.41;5065368;28;20482;-63
2022/09/04 01:46:18;;;;;;;1.00;1.00;;;;;;;22.45;48.04;95470.53;5068834;28;20507;-64
2022/09/04 01:48:45;;;;;;;0.70;0.70;;;;;;;22.14;48.88;95466.16;5068852;28;20484;-63
2022/09/04 01:51:28;;;;;;;65.73;2.73;;;;;;;22.36;48.27;95459.06;5041194;28;20448;-64
2022/09/04 01:54:19;;;;;;;1.27;1.17;;;;;;;22.07;49.05;95467.72;5037056;28;20443;-63
2022/09/04 01:57:07;;;;;;;0.70;0.70;;;;;;;22.32;48.31;95463.44;5038934;28;20452;-63
2022/09/04 02:00:07;;;;;;;1.20;1.10;;;;;;;22.37;48.03;95469.41;5036405;28;20534;-64
2022/09/04 02:02:52;;;;;;;1.03;1.03;;;;;;;22.11;48.91;95472.13;5063226;28;20473;-63
2022/09/04 02:05:31;;;;;;;0.50;0.43;;;;;;;22.10;48.54;95472.41;5062986;28;20446;-64
2022/09/04 02:08:17;;;;;;;0.90;0.90;;;;;;;22.23;48.11;95471.47;5052997;28;20920;-63
2022/09/04 02:10:50;;;;;;;0.20;0.20;;;;;;;22.35;47.63;95468.19;5048523;28;20456;-64
2022/09/04 02:13:35;;;;;;;1.50;0.67;;;;;;;22.22;47.70;95469.13;5058567;28;21242;-63
2022/09/04 02:16:13;;;;;;;1.93;1.73;;;;;;;22.31;47.61;95462.69;5048389;28;20526;-62
2022/09/04 02:18:55;;;;;;;0.47;0.47;;;;;;;22.23;47.88;95463.47;5061032;28;20515;-63
2022/09/04 02:21:31;;;;;;;3.17;1.33;;;;;;;22.18;48.17;95460.97;5068863;28;20481;-64
2022/09/04 02:24:04;;;;;;;0.70;0.70;;;;;;;21.94;48.85;95473.97;5054995;28;20439;-63
2022/09/04 02:27:06;;;;;;;3.50;1.70;;;;;;;21.92;48.54;95466.28;5047919;28;20446;-63
2022/09/04 02:29:43;;;;;;;0.93;0.87;;;;;;;21.51;49.68;95459.75;5058483;28;20509;-63
2022/09/04 02:32:36;;;;;;;0.30;0.30;;;;;;;21.60;49.78;95452.56;5028467;28;20436;-63
2022/09/04 02:35:09;;;;;;;1.03;1.03;;;;;;;21.60;49.83;95447.22;5028179;28;20478;-63
2022/09/04 02:37:48;;;;;;;0.57;0.57;;;;;;;21.50;50.14;95447.50;5056522;28;20449;-63
2022/09/04 02:40:33;;;;;;;0.30;0.30;;;;;;;21.54;50.10;95443.13;5036001;28;20460;-63
2022/09/04 02:43:00;;;;;;;1.30;1.10;;;;;;;21.72;49.51;95450.06;5064580;28;20568;-65
2022/09/04 02:46:01;;;;;;;1.30;0.93;;;;;;;21.89;49.09;95460.78;5067061;28;20449;-64
2022/09/04 02:48:56;;;;;;;0.83;0.80;;;;;;;21.73;49.35;95462.31;5048601;28;20463;-64
2022/09/04 02:51:40;;;;;;;0.57;0.57;;;;;;;21.92;48.45;95457.47;5047053;28;20450;-63
2022/09/04 02:54:18;;;;;;;0.70;0.70;;;;;;;21.84;48.76;95475.06;5058295;28;20565;-63
2022/09/04 02:57:00;;;;;;;1.33;1.10;;;;;;;21.23;49.73;95469.84;5034447;28;20447;-63
2022/09/04 03:00:18;;;;;;;1.90;0.93;;;;;;;21.11;49.86;95467.75;5036305;28;20809;-63
2022/09/04 03:03:04;;;;;;;0.70;0.70;;;;;;;21.42;49.43;95474.94;5029306;28;20450;-62
2022/09/04 03:05:43;;;;;;;1.60;1.47;;;;;;;21.46;49.00;95479.31;5058139;28;20508;-64
2022/09/04 03:08:36;;;;;;;0.53;0.53;;;;;;;21.30;49.38;95490.72;5057583;28;20477;-63
2022/09/04 03:11:34;;;;;;;0.30;0.30;;;;;;;21.30;49.44;95490.72;5067767;28;20529;-63
2022/09/04 03:14:03;;;;;;;0.23;0.23;;;;;;;21.27;49.28;95486.00;5051897;28;20447;-64
2022/09/04 03:16:41;;;;;;;0.20;0.20;;;;;;;21.10;49.49;95486.72;5056655;28;20438;-64
2022/09/04 03:19:30;;;;;;;0.40;0.40;;;;;;;20.85;50.11;95490.81;5053623;28;20447;-62
2022/09/04 03:22:44;;;;;;;1.23;1.17;;;;;;;21.17;49.39;95487.84;5067967;28;20449;-64
2022/09/04 03:25:33;;;;;;;0.50;0.50;;;;;;;20.95;49.83;95485.22;5076157;28;20528;-62
2022/09/04 03:28:00;;;;;;;0.47;0.47;;;;;;;20.79;50.86;95478.69;5041300;28;20592;-63
2022/09/04 03:30:34;;;;;;;0.93;0.93;;;;;;;21.02;50.04;95474.16;5071431;28;20441;-62
2022/09/04 03:33:20;;;;;;;1.80;1.20;;;;;;;20.81;50.55;95479.19;5049359;28;20458;-63
2022/09/04 03:35:54;;;;;;;0.50;0.50;;;;;;;20.93;50.22;95482.06;5044743;28;20803;-63
2022/09/04 03:39:03;;;;;;;0.47;0.47;;;;;;;20.72;50.20;95485.53;5037797;28;20469;-63
2022/09/04 03:41:49;;;;;;;0.37;0.37;;;;;;;20.70;50.74;95498.38;5051041;28;20439;-63
2022/09/04 03:44:28;;;;;;;1.87;1.43;;;;;;;20.79;50.36;95494.69;5064360;28;20501;-63
2022/09/04 03:47:00;;;;;;;0.53;0.53;;;;;;;20.78;50.38;95495.75;5038614;28;20453;-62
2022/09/04 03:49:37;;;;;;;0.57;0.57;;;;;;;20.89;50.24;95497.06;5065143;28;20485;-68
2022/09/04 03:52:32;;;;;;;0.40;0.40;;;;;;;21.23;49.75;95501.84;5044265;28;20495;-63
2022/09/04 03:55:07;;;;;;;0.60;0.60;;;;;;;21.05;49.97;95513.50;5071117;28;20445;-64
2022/09/04 03:58:05;;;;;;;3.03;1.90;;;;;;;21.10;49.76;95508.03;5044064;28;20537;-63
2022/09/04 04:00:55;;;;;;;0.27;0.27;;;;;;;20.81;50.16;95505.81;5042704;28;20521;-63
2022/09/04 04:04:07;;;;;;;0.83;0.83;;;;;;;20.69;50.43;95528.78;5046578;28;20439;-63
2022/09/04 04:06:46;;;;;;;0.70;0.70;;;;;;;20.50;51.51;95526.28;5059673;28;20453;-64
2022/09/04 04:09:58;;;;;;;0.27;0.27;;;;;;;20.35;52.12;95528.50;5062244;28;20498;-62
2022/09/04 04:12:44;;;;;;;3.30;2.00;;;;;;;20.45;51.96;95541.59;5047299;28;20458;-63
2022/09/04 04:15:53;;;;;;;0.57;0.57;;;;;;;20.58;51.98;95557.53;5044416;28;20502;-63
2022/09/04 04:19:01;;;;;;;1.23;1.13;;;;;;;20.70;51.16;95557.75;5029030;28;20458;-63
2022/09/04 04:21:55;;;;;;;0.30;0.30;;;;;;;20.46;52.69;95551.94;5038244;28;20462;-63
2022/09/04 04:24:56;;;;;;;1.13;0.80;;;;;;;20.70;52.04;95555.09;5064655;28;20529;-63
2022/09/04 04:27:35;;;;;;;2.50;1.87;;;;;;;20.88;51.48;95564.78;5064335;28;20450;-63
2022/09/04 04:30:13;;;;;;;0.77;0.77;;;;;;;20.89;51.93;95561.00;5070288;28;20443;-63
2022/09/04 04:32:55;;;;;;;0.97;0.97;;;;;;;21.00;52.13;95564.28;5054795;28;20533;-63
2022/09/04 04:35:51;;;;;;;1.23;1.13;;;;;;;21.17;51.72;95577.69;5040631;28;20443;-63
2022/09/04 04:38:53;;;;;;;1.23;1.13;;;;;;;20.98;52.46;95580.50;5047712;28;20442;-63
2022/09/04 04:42:03;;;;;;;0.83;0.83;;;;;;;21.08;52.36;95579.50;5052446;28;21291;-62
2022/09/04 04:48:02;;;;;;;0.80;0.80;;;;;;;21.12;51.82;95564.50;5062421;28;20798;-63
2022/09/04 04:50:58;;;;;;;0.80;0.80;;;;;;;20.84;52.56;95566.47;5030911;28;20463;-62
2022/09/04 04:54:02;;;;;;;1.70;1.43;;;;;;;20.90;52.58;95573.25;5047638;28;20482;-64
2022/09/04 04:56:57;;;;;;;0.57;0.57;;;;;;;21.08;51.86;95580.31;5037635;28;20475;-63
2022/09/04 04:59:37;;;;;;;1.07;1.03;;;;;;;21.39;51.30;95588.31;5045995;28;20438;-62
2022/09/04 05:02:20;;;;;;;0.40;0.40;;;;;;;21.34;51.16;95584.97;5052771;28;20443;-63
2022/09/04 05:04:56;;;;;;;1.50;1.33;;;;;;;21.14;51.69;95589.75;5049999;28;20533;-63
2022/09/04 05:08:05;;;;;;;2.20;0.70;;;;;;;21.33;51.29;95591.41;5055558;28;20438;-64
2022/09/04 05:10:42;;;;;;;2.47;1.50;;;;;;;20.69;53.06;95582.03;5037561;28;20466;-63
2022/09/04 05:13:36;;;;;;;0.50;0.50;;;;;;;21.04;52.47;95574.00;5058232;28;20908;-63
2022/09/04 05:16:29;;;;;;;0.33;0.33;;;;;;;21.18;51.84;95569.38;5055138;28;20963;-63
2022/09/04 05:19:11;;;;;;;0.50;0.50;;;;;;;21.13;52.11;95566.84;5054499;28;20453;-63
2022/09/04 05:21:43;;;;;;;1.10;1.07;;;;;;;20.99;53.07;95566.13;5060342;28;20533;-64
2022/09/04 05:24:21;;;;;;;0.20;0.20;;;;;;;20.98;53.43;95572.50;5036758;28;20478;-64
2022/09/04 05:27:11;;;;;;;1.53;0.87;;;;;;;21.33;52.50;95583.44;5069525;28;21225;-65
2022/09/04 05:30:09;;;;;;;1.90;1.17;;;;;;;21.34;52.38;95587.66;5069218;28;20469;-63
2022/09/04 05:33:19;;;;;;;0.47;0.47;;;;;;;21.25;52.33;95592.16;5041374;28;20448;-64
2022/09/04 05:35:55;;;;;;;1.27;1.17;;;;;;;21.35;52.28;95589.25;5070808;28;20450;-64
2022/09/04 05:38:40;;;;;;;3.33;2.50;;;;;;;21.45;51.76;95586.28;5035453;28;20439;-64
2022/09/04 05:41:35;;;;;;;1.40;1.30;;;;;;;21.71;51.84;95581.88;5062021;28;20518;-64
2022/09/04 05:44:17;;;;;;;0.90;0.57;;;;;;;22.10;50.29;95589.84;5051123;28;20469;-63
2022/09/04 05:47:03;;;;;;;0.40;0.40;;;;;;;22.16;50.43;95596.63;5068618;28;20450;-65
2022/09/04 05:50:00;;;;;;;1.50;1.40;;;;;;;22.25;50.11;95591.28;5040167;28;20471;-63
2022/09/04 05:52:48;;;;;;;0.67;0.67;;;;;;;22.03;50.39;95594.88;5047893;28;20540;-62
2022/09/04 05:55:33;;;;;;;0.43;0.43;;;;;;;21.72;51.69;95594.91;5063024;28;20443;-62
2022/09/04 05:58:29;;;;;;;1.17;1.10;;;;;;;21.71;52.03;95576.53;5038743;28;20521;-65
2022/09/04 06:01:31;;;;;;;0.80;0.80;;;;;;;21.68;51.72;95582.47;5037919;28;20453;-63
2022/09/04 06:04:13;;;;;;;6.07;1.23;;;;;;;21.92;51.38;95577.56;5048024;28;20472;-64
2022/09/04 06:07:16;;;;;;;0.40;0.40;;;;;;;21.89;51.46;95556.84;5033709;28;20544;-62
2022/09/04 06:10:18;;;;;;;1.17;1.17;;;;;;;22.01;51.04;95560.47;5052808;28;20494;-63
2022/09/04 06:13:12;;;;;;;0.90;0.87;;;;;;;21.97;51.53;95558.72;5019916;28;20550;-64
2022/09/04 06:16:07;;;;;;;1.00;1.00;;;;;;;21.76;52.22;95565.72;5031177;28;20451;-65
2022/09/04 06:19:05;;;;;;;1.00;1.00;;;;;;;21.72;52.20;95562.09;5028735;28;20478;-69
2022/09/04 06:21:50;;;;;;;1.27;1.17;;;;;;;21.34;53.60;95566.31;5038344;28;20438;-68
2022/09/04 06:24:23;;;;;;;0.70;0.70;;;;;;;21.79;52.33;95565.13;5055336;28;20968;-68
2022/09/04 06:27:03;;;;;;;1.20;1.20;;;;;;;21.87;52.29;95569.72;5026518;28;20444;-69
2022/09/04 06:30:05;;;;;;;6.23;1.57;;;;;;;21.77;52.59;95572.66;5025941;28;20476;-69
2022/09/04 06:32:56;;;;;;;3.70;1.47;;;;;;;21.41;53.66;95566.66;5026671;28;20436;-68
2022/09/04 06:35:42;;;;;;;1.27;1.20;;;;;;;21.59;52.87;95566.44;5031152;28;20448;-70
2022/09/04 06:38:37;;;;;;;1.03;0.63;;;;;;;22.13;51.36;95557.22;5046874;28;20452;-69
2022/09/04 06:41:28;;;;;;;1.97;1.77;;;;;;;22.33;50.53;95555.81;5046766;28;20449;-68
2022/09/04 06:44:10;;;;;;;1.23;1.23;;;;;;;22.57;50.06;95561.53;5018756;28;20836;-68
2022/09/04 06:47:10;;;;;;;0.83;0.83;;;;;;;22.45;50.00;95556.78;5032736;28;20578;-67
2022/09/04 06:50:17;;;;;;;0.90;0.90;;;;;;;22.39;50.72;95555.34;5032653;28;20477;-68
2022/09/04 06:53:00;;;;;;;0.30;0.30;;;;;;;22.28;50.65;95575.44;5043328;28;20465;-71
2022/09/04 06:55:48;;;;;;;1.90;1.23;;;;;;;22.37;51.30;95567.47;5034063;28;20454;-68
2022/09/04 06:58:43;;;;;;;6.03;1.23;;;;;;;22.45;51.13;95562.13;5018555;28;21041;-65
2022/09/04 07:01:29;;;;;;;0.90;0.90;;;;;;;21.96;52.73;95567.84;5032021;28;20964;-66
2022/09/04 07:04:20;;;;;;;1.37;1.27;;;;;;;21.94;52.67;95557.50;5056419;28;20877;-68
2022/09/04 07:07:10;;;;;;;1.87;1.70;;;;;;;22.44;51.90;95557.88;5056585;28;20203;-62
2022/09/04 07:09:48;;;;;;;2.80;2.13;;;;;;;22.19;51.23;95560.53;5031999;28;20940;-63
2022/09/04 07:12:47;;;;;;;1.20;1.10;;;;;;;22.69;50.75;95557.13;5022024;28;20444;-63
2022/09/04 07:15:29;;;;;;;3.60;3.33;;;;;;;23.04;49.91;95555.19;5031358;28;20548;-64
2022/09/04 07:18:28;;;;;;;1.40;1.30;;;;;;;23.07;50.27;95558.03;5053075;28;20196;-64
2022/09/04 07:21:32;;;;;;;2.70;2.50;;;;;;;23.00;49.38;95565.75;5023496;28;20474;-65
2022/09/04 07:24:34;;;;;;;3.40;2.93;;;;;;;23.37;49.23;95566.16;5023359;28;20443;-65
2022/09/04 07:27:14;;;;;;;1.43;1.30;;;;;;;22.61;50.02;95573.16;5056187;28;20504;-65
2022/09/04 07:29:53;;;;;;;0.83;0.83;;;;;;;22.42;51.36;95560.09;5029423;28;20471;-64
2022/09/04 07:32:39;;;;;;;1.27;1.13;;;;;;;22.61;51.37;95551.78;5038139;28;20286;-66
2022/09/04 07:35:38;;;;;;;0.53;0.53;;;;;;;23.41;49.75;95554.47;5034422;28;20208;-66
2022/09/04 07:38:40;;;;;;;0.83;0.83;;;;;;;23.17;49.15;95561.47;5049021;28;20504;-66
2022/09/04 07:41:21;;;;;;;0.20;0.20;;;;;;;23.04;50.42;95560.53;5072985;28;20285;-64
2022/09/04 07:43:56;;;;;;;8.03;7.20;;;;;;;23.45;49.98;95571.47;5027714;28;20243;-64
2022/09/04 07:46:53;;;;;;;3.47;3.17;;;;;;;22.93;51.53;95586.81;5035178;28;20198;-64
2022/09/04 07:49:34;;;;;;;3.03;1.53;;;;;;;23.12;50.17;95586.47;5033820;28;20419;-67
2022/09/04 07:52:23;;;;;;;5.30;4.67;;;;;;;23.45;49.12;95586.75;5033751;28;20196;-67
2022/09/04 07:54:49;;;;;;;1.93;1.53;;;;;;;22.94;51.46;95585.72;5037852;28;20287;-66
2022/09/04 07:57:58;;;;;;;1.23;1.13;;;;;;;23.24;50.65;95585.81;5033703;28;20185;-69
2022/09/04 08:00:27;;;;;;;1.37;1.23;;;;;;;23.10;49.59;95583.34;5048838;28;20737;-69
2022/09/04 08:03:23;;;;;;;1.50;1.20;;;;;;;23.01;51.40;95594.03;5040558;28;20224;-67
2022/09/04 08:06:01;;;;;;;1.00;1.00;;;;;;;23.16;51.24;95578.63;5048445;28;20674;-67
2022/09/04 08:09:06;;;;;;;1.53;1.43;;;;;;;23.29;51.07;95588.31;5026697;28;20207;-69
2022/09/04 08:11:33;;;;;;;0.40;0.40;;;;;;;23.24;51.37;95596.50;5038171;28;20201;-68
2022/09/04 08:14:22;;;;;;;0.70;0.70;;;;;;;24.30;48.63;95597.09;5028529;28;20192;-67
2022/09/04 08:17:44;;;;;;;1.10;1.10;;;;;;;24.93;46.97;95587.97;5029663;28;20200;-68
2022/09/04 08:20:53;;;;;;;2.90;2.60;;;;;;;24.65;48.24;95595.72;5061155;28;20203;-70
2022/09/04 08:23:38;;;;;;;1.00;1.00;;;;;;;24.20;48.33;95591.31;5064039;28;20330;-67
2022/09/04 08:26:16;;;;;;;0.73;0.73;;;;;;;24.65;46.96;95593.03;5042821;28;20204;-65
2022/09/04 08:28:55;;;;;;;3.40;2.30;;;;;;;24.67;47.11;95590.06;5043151;28;20225;-67
2022/09/04 08:31:31;;;;;;;5.57;2.03;;;;;;;25.32;45.33;95594.69;5060740;28;20210;-66
2022/09/04 08:34:07;;;;;;;1.50;1.40;;;;;;;24.80;46.10;95589.81;5056910;28;20494;-64
2022/09/04 08:36:48;;;;;;;1.20;1.20;;;;;;;24.38;46.16;95582.84;5050139;28;20274;-64
2022/09/04 08:40:04;;;;;;;0.47;0.47;;;;;;;24.69;46.26;95582.50;5031660;28;20776;-64
2022/09/04 08:42:43;;;;;;;3.00;1.63;;;;;;;25.16;45.04;95577.69;5000381;28;20375;-63
2022/09/04 08:45:32;;;;;;;3.40;2.23;;;;;;;25.48;45.66;95576.88;5031733;28;20289;-64
2022/09/04 08:48:41;;;;;;;1.00;1.00;;;;;;;26.19;43.07;95572.69;5029041;28;20192;-62
2022/09/04 08:51:39;;;;;;;1.40;1.30;;;;;;;26.07;43.84;95567.34;5026921;28;20667;-65
2022/09/04 08:54:31;;;;;;;1.03;1.03;;;;;;;26.43;42.75;95564.59;5036391;28;20230;-66
2022/09/04 08:57:30;;;;;;;1.33;0.80;;;;;;;26.22;42.79;95561.28;5021566;28;20683;-59
2022/09/04 09:00:14;;;;;;;2.37;1.33;;;;;;;26.61;41.03;95555.16;5051687;28;20603;-60
2022/09/04 09:02:59;;;;;;;0.57;0.57;;;;;;;26.69;40.92;95546.22;5030224;28;20184;-67
2022/09/04 09:06:07;;;;;;;0.40;0.40;;;;;;;26.96;41.25;95550.00;5064288;28;20199;-63
2022/09/04 09:09:08;;;;;;;1.47;0.90;;;;;;;27.08;40.94;95551.88;5065296;28;20332;-62
2022/09/04 09:11:38;;;;;;;1.00;0.80;;;;;;;27.31;39.18;95548.31;5058847;28;20298;-62
2022/09/04 09:14:42;;;;;;;0.50;0.50;;;;;;;27.51;38.77;95555.38;5028417;28;20193;-62
2022/09/04 09:17:21;;;;;;;0.77;0.43;;;;;;;27.30;38.49;95559.38;5027653;28;20193;-62
2022/09/04 09:20:09;;;;;;;0.67;0.67;;;;;;;27.61;38.93;95551.38;5029188;28;20300;-64
2022/09/04 09:22:39;;;;;;;0.63;0.50;;;;;;;27.67;39.60;95549.97;5027827;28;20200;-61
2022/09/04 09:25:19;;;;;;;0.37;0.37;;;;;;;27.86;38.59;95548.13;5028124;28;20197;-62
2022/09/04 09:28:28;;;;;;;1.03;1.03;;;;;;;27.53;38.46;95547.72;5027898;28;20286;-63
2022/09/04 09:31:15;;;;;;;1.10;1.00;;;;;;;27.63;37.86;95541.81;5056542;28;20227;-62
2022/09/04 09:34:05;;;;;;;0.53;0.53;;;;;;;28.49;35.43;95534.56;5040166;28;20200;-62
2022/09/04 09:37:10;;;;;;;0.43;0.43;;;;;;;28.23;36.92;95532.47;5043395;28;20271;-60
2022/09/04 09:40:06;;;;;;;0.73;0.63;;;;;;;28.67;33.35;95531.13;5028286;28;20272;-60
2022/09/04 09:42:48;;;;;;;0.40;0.40;;;;;;;28.14;34.42;95529.19;5042496;28;20318;-64
2022/09/04 09:45:40;;;;;;;0.20;0.20;;;;;;;28.53;36.23;95530.84;5053433;28;20284;-63
2022/09/04 09:48:10;;;;;;;0.30;0.30;;;;;;;28.62;35.99;95528.72;5048306;28;20249;-61
2022/09/04 09:50:58;;;;;;;2.83;0.87;;;;;;;28.99;36.28;95521.72;5050782;28;20220;-60
2022/09/04 09:53:34;;;;;;;0.73;0.73;;;;;;;28.84;36.18;95511.81;5048741;28;20752;-62
2022/09/04 09:56:31;;;;;;;1.30;0.67;;;;;;;28.32;37.28;95521.50;5048929;28;20779;-62
2022/09/04 09:59:19;;;;;;;0.37;0.37;;;;;;;28.68;36.08;95510.34;5049541;28;20192;-62
2022/09/04 10:02:17;;;;;;;0.43;0.43;;;;;;;29.05;35.48;95499.88;5065936;28;20947;-63
2022/09/04 10:05:04;;;;;;;1.27;1.13;;;;;;;29.28;35.99;95489.91;5046358;28;20726;-62
2022/09/04 10:08:03;;;;;;;0.57;0.57;;;;;;;29.75;34.28;95507.31;5034996;28;20283;-62
2022/09/04 10:10:33;;;;;;;0.57;0.57;;;;;;;29.82;33.53;95509.34;5035541;28;20318;-62
2022/09/04 10:13:18;;;;;;;0.50;0.50;;;;;;;29.60;33.44;95512.81;5042388;28;20568;-64
2022/09/04 10:16:02;;;;;;;1.83;1.53;;;;;;;29.10;33.96;95500.38;5037034;28;20197;-64
2022/09/04 10:18:34;;;;;;;0.93;0.93;;;;;;;29.36;34.56;95502.41;5057957;28;20202;-62
2022/09/04 10:21:39;;;;;;;2.00;1.90;;;;;;;29.70;34.14;95490.63;5066784;28;20634;-63
2022/09/04 10:24:15;;;;;;;0.87;0.53;;;;;;;29.98;32.98;95485.69;5051786;28;20200;-62
2022/09/04 10:27:13;;;;;;;0.80;0.80;;;;;;;30.20;32.73;95476.69;5037380;28;20200;-64
2022/09/04 10:29:53;;;;;;;1.63;0.90;;;;;;;29.74;33.89;95486.06;5027070;28;20229;-64
2022/09/04 10:33:03;;;;;;;0.20;0.20;;;;;;;29.32;35.00;95474.56;5051489;28;20201;-61
2022/09/04 10:35:51;;;;;;;1.03;1.00;;;;;;;30.10;33.53;95488.16;5042770;28;20196;-62
2022/09/04 10:41:59;;;;;;;0.77;0.77;;;;;;;29.83;33.54;95483.91;5051012;28;20196;-62
2022/09/04 10:44:25;;;;;;;0.47;0.47;;;;;;;29.87;33.36;95490.16;5051048;28;20220;-64
2022/09/04 10:47:11;;;;;;;0.70;0.70;;;;;;;30.25;33.50;95481.81;5066636;28;20192;-60
2022/09/04 10:50:06;;;;;;;0.70;0.70;;;;;;;30.71;32.96;95464.22;5050313;28;20224;-66
2022/09/04 10:52:32;;;;;;;3.90;0.70;;;;;;;30.74;32.22;95455.41;5051855;28;20321;-68
2022/09/04 10:55:07;;;;;;;0.67;0.67;;;;;;;30.25;32.92;95457.47;5066104;28;20260;-65
2022/09/04 10:58:11;;;;;;;0.63;0.63;;;;;;;30.29;33.63;95463.72;5037497;28;20371;-64
2022/09/04 11:00:53;;;;;;;0.87;0.40;;;;;;;30.94;32.47;95455.22;5037271;28;20192;-68
2022/09/04 11:03:43;;;;;;;0.70;0.70;;;;;;;30.86;32.61;95465.97;5063444;28;20239;-70
2022/09/04 11:06:24;;;;;;;1.00;0.93;;;;;;;30.90;32.94;95455.19;5045495;28;20206;-63
2022/09/04 11:09:13;;;;;;;0.60;0.60;;;;;;;30.85;33.03;95447.41;5043061;28;20205;-67
2022/09/04 11:12:27;;;;;;;0.33;0.33;;;;;;;30.91;32.96;95440.53;5060018;28;20204;-70
2022/09/04 11:14:57;;;;;;;0.50;0.50;;;;;;;31.37;31.21;95436.31;5039998;28;20283;-67
2022/09/04 11:17:33;;;;;;;10.37;5.23;;;;;;;31.48;30.95;95441.81;5052076;28;20200;-65
2022/09/04 11:20:27;;;;;;;0.80;0.80;;;;;;;31.54;30.88;95435.69;5061531;28;20245;-71
2022/09/04 11:23:06;;;;;;;1.20;1.10;;;;;;;31.33;30.81;95432.03;5055433;28;20187;-69
2022/09/04 11:25:52;;;;;;;0.67;0.67;;;;;;;31.49;31.80;95427.13;5057729;28;20204;-64
2022/09/04 11:28:50;;;;;;;0.60;0.60;;;;;;;31.63;32.10;95427.25;5046158;28;20199;-70
2022/09/04 11:31:38;;;;;;;0.43;0.40;;;;;;;31.83;31.50;95420.41;5042695;28;20733;-62
2022/09/04 11:34:47;;;;;;;1.40;0.70;;;;;;;32.64;30.48;95421.66;5057799;28;20215;-61
2022/09/04 11:38:09;;;;;;;1.40;0.97;;;;;;;32.41;30.61;95429.25;5052760;28;20631;-62
2022/09/04 11:41:14;;;;;;;0.70;0.70;;;;;;;31.93;30.91;95419.75;5087513;28;20237;-66
2022/09/04 11:43:59;;;;;;;0.77;0.77;;;;;;;32.55;29.74;95410.38;5046370;28;20353;-63
2022/09/04 11:46:46;;;;;;;0.57;0.50;;;;;;;32.77;29.82;95408.50;5039128;28;20718;-61
2022/09/04 11:49:29;;;;;;;0.50;0.50;;;;;;;32.45;29.73;95411.09;5039011;28;20259;-65
2022/09/04 11:52:25;;;;;;;3.47;3.00;;;;;;;33.27;30.01;95414.78;5029572;28;20197;-63
2022/09/04 11:55:16;;;;;;;6.40;3.93;;;;;;;33.37;28.63;95414.00;5031178;28;20291;-64
2022/09/04 11:58:05;;;;;;;0.87;0.87;;;;;;;32.77;29.39;95403.81;5030477;28;20196;-64
2022/09/04 12:00:58;;;;;;;0.93;0.93;;;;;;;32.83;30.06;95401.50;5063667;28;20230;-64
2022/09/04 12:03:57;;;;;;;0.50;0.50;;;;;;;33.95;28.43;95400.81;5057998;28;20275;-63
2022/09/04 12:07:04;;;;;;;0.40;0.40;;;;;;;33.06;29.31;95390.31;5057947;28;20291;-64
2022/09/04 12:09:43;;;;;;;0.63;0.63;;;;;;;32.94;29.40;95385.28;5044327;28;20265;-61
2022/09/04 12:12:30;;;;;;;0.60;0.60;;;;;;;32.86;29.74;95378.25;5056030;28;20196;-64
2022/09/04 12:14:57;;;;;;;0.97;0.50;;;;;;;33.17;27.04;95374.81;5063336;28;20200;-62
2022/09/04 12:18:07;;;;;;;2.00;0.53;;;;;;;32.70;27.85;95376.66;5032276;28;20518;-61
2022/09/04 12:21:16;;;;;;;0.40;0.40;;;;;;;32.67;27.37;95369.31;5047051;28;20208;-60
2022/09/04 12:24:07;;;;;;;0.43;0.43;;;;;;;33.12;27.39;95367.06;5034434;28;20201;-63
2022/09/04 12:27:17;;;;;;;1.00;1.00;;;;;;;33.19;28.51;95383.34;5030780;28;20197;-61
2022/09/04 12:29:53;;;;;;;0.30;0.30;;;;;;;33.07;26.41;95370.16;5028278;28;20231;-62
2022/09/04 12:32:53;;;;;;;0.40;0.40;;;;;;;33.35;26.25;95372.88;5055856;28;20231;-61
2022/09/04 12:35:39;;;;;;;0.73;0.73;;;;;;;32.76;26.47;95375.13;5039927;28;20202;-61
2022/09/04 12:38:34;;;;;;;0.83;0.53;;;;;;;33.36;27.08;95368.97;5027253;28;20319;-62
2022/09/04 12:41:16;;;;;;;0.67;0.67;;;;;;;32.25;26.87;95374.56;5040896;28;20204;-61
2022/09/04 12:44:04;;;;;;;1.00;1.00;;;;;;;31.94;27.61;95371.69;5050676;28;20223;-61
2022/09/04 12:46:47;;;;;;;0.30;0.30;;;;;;;31.53;27.79;95373.78;5060922;28;20283;-60
2022/09/04 12:49:29;;;;;;;0.80;0.80;;;;;;;31.96;28.00;95375.59;5047268;28;20968;-61
2022/09/04 12:52:27;;;;;;;0.43;0.43;;;;;;;31.58;27.86;95378.84;5031162;28;20281;-61
2022/09/04 12:55:00;;;;;;;0.53;0.53;;;;;;;31.08;28.88;95374.16;5046235;28;20205;-62
2022/09/04 12:57:41;;;;;;;0.43;0.43;;;;;;;30.54;28.13;95389.09;5026937;28;20209;-61
2022/09/04 13:00:11;;;;;;;0.40;0.40;;;;;;;31.07;28.64;95372.59;5040518;28;20205;-62
2022/09/04 13:03:22;;;;;;;0.37;0.37;;;;;;;31.22;27.75;95374.28;5033365;28;20192;-62
2022/09/04 13:06:02;;;;;;;0.57;0.57;;;;;;;31.08;28.50;95374.94;5078107;28;20290;-61
2022/09/04 13:08:42;;;;;;;2.73;1.40;;;;;;;31.57;28.54;95366.41;5065053;28;20295;-61
2022/09/04 13:11:16;;;;;;;7.53;5.63;;;;;;;31.73;28.53;95356.84;5031153;28;20252;-62
2022/09/04 13:14:13;;;;;;;6.63;5.20;;;;;;;31.61;27.68;95364.53;5027421;28;20645;-62
2022/09/04 13:16:54;;;;;;;0.87;0.87;;;;;;;31.40;27.20;95359.75;5044420;28;20631;-64
2022/09/04 13:19:45;;;;;;;0.63;0.60;;;;;;;31.30;27.70;95365.03;5047174;28;20203;-60